This is the latest recevied weather packets stored in our database for station/object IW4CYE-7. If no packets are shown the sender has not sent any weather packets the latest 10 day(s).
| Time | Temp. | Humidity | Pressure | Rain* | Wind** | Luminosity | Snow |
|---|---|---|---|---|---|---|---|
| 1787626642 | 20° C | 94% | 999.7 hPa | 1.52 mm | - | - | - |
| 1787626042 | 20° C | 93% | 1000 hPa | 1.52 mm | - | - | - |
| 1787625442 | 20.56° C | 94% | 1000.7 hPa | 1.02 mm | - | - | - |
| 1787624842 | 20.56° C | 94% | 1001.4 hPa | 0.51 mm | - | - | - |
| 1787624242 | 20.56° C | 95% | 1002 hPa | 0.25 mm | - | - | - |
| 1787623642 | 21.11° C | 96% | 1001 hPa | 0.51 mm | - | - | - |
| 1787623042 | 21.11° C | 96% | 1001 hPa | 0.51 mm | - | - | - |
| 1787622442 | 21.11° C | 96% | 1001.4 hPa | 0.51 mm | - | - | - |
| 1787621842 | 21.11° C | 95% | 1000.7 hPa | 0.51 mm | - | - | - |
| 1787621242 | 21.67° C | 95% | 1001 hPa | 0.51 mm | - | - | - |
| 1787620642 | 21.67° C | 94% | 1000.7 hPa | 0.25 mm | - | - | - |
| 1787620042 | 21.67° C | 94% | 1001.7 hPa | 7.87 mm | - | - | - |
| 1787617996 | 23.33° C | 89% | 1000.3 hPa | 0 mm | - | - | - |
| 1787617396 | 23.33° C | 88% | 1000.3 hPa | 0 mm | - | - | - |
| 1787616796 | 23.89° C | 87% | 1001 hPa | 0 mm | - | - | - |
| 1787616196 | 23.89° C | 86% | 1000.7 hPa | 0 mm | - | - | - |
| 1787615596 | 23.89° C | 85% | 1000.3 hPa | 0 mm | - | - | - |
| 1787614996 | 23.89° C | 85% | 1000.7 hPa | 0 mm | - | - | - |
| 1787614396 | 23.89° C | 85% | 1000.7 hPa | 0 mm | - | - | - |
| 1787613796 | 23.89° C | 85% | 1000.7 hPa | 0 mm | - | - | - |
| 1787613197 | 23.89° C | 85% | 1000.7 hPa | 0 mm | - | - | - |
| 1787612597 | 23.89° C | 84% | 1000.7 hPa | 0 mm | - | - | - |
| 1787611997 | 23.89° C | 84% | 1001 hPa | 0 mm | - | - | - |
| 1787611397 | 23.89° C | 83% | 1001 hPa | 0 mm | - | - | - |
| 1787610797 | 23.89° C | 83% | 1001 hPa | 0 mm | - | - | - |
* Rain latest hour (hover to see other rain measurements)
** Current wind speed in m/s (hover to see current wind gust speed)